sensor_id;sensor_type;location;lat;lon;timestamp;P1;durP1;ratioP1;P2;durP2;ratioP2
85894;SDS011;76441;49.954;8.842;2024-02-23T00:02:04;3.55;;;1.40;;
85894;SDS011;76441;49.954;8.842;2024-02-23T00:04:30;2.58;;;1.50;;
85894;SDS011;76441;49.954;8.842;2024-02-23T00:06:56;3.17;;;1.20;;
85894;SDS011;76441;49.954;8.842;2024-02-23T00:09:21;3.17;;;1.67;;
85894;SDS011;76441;49.954;8.842;2024-02-23T00:11:46;2.08;;;1.75;;
85894;SDS011;76441;49.954;8.842;2024-02-23T00:14:12;4.60;;;1.48;;
85894;SDS011;76441;49.954;8.842;2024-02-23T00:16:41;3.78;;;1.15;;
85894;SDS011;76441;49.954;8.842;2024-02-23T00:19:09;2.85;;;1.52;;
85894;SDS011;76441;49.954;8.842;2024-02-23T00:21:38;5.55;;;1.50;;
85894;SDS011;76441;49.954;8.842;2024-02-23T00:24:05;1.65;;;1.40;;
85894;SDS011;76441;49.954;8.842;2024-02-23T00:26:31;1.73;;;1.30;;
85894;SDS011;76441;49.954;8.842;2024-02-23T00:28:56;5.20;;;1.20;;
85894;SDS011;76441;49.954;8.842;2024-02-23T00:31:21;2.72;;;1.50;;
85894;SDS011;76441;49.954;8.842;2024-02-23T00:33:47;2.45;;;1.27;;
85894;SDS011;76441;49.954;8.842;2024-02-23T00:36:12;2.58;;;1.15;;
85894;SDS011;76441;49.954;8.842;2024-02-23T00:38:38;4.40;;;1.27;;
85894;SDS011;76441;49.954;8.842;2024-02-23T00:41:03;1.15;;;1.02;;
85894;SDS011;76441;49.954;8.842;2024-02-23T00:43:28;2.53;;;1.27;;
85894;SDS011;76441;49.954;8.842;2024-02-23T00:45:56;3.72;;;1.30;;
85894;SDS011;76441;49.954;8.842;2024-02-23T00:48:21;2.90;;;1.30;;
85894;SDS011;76441;49.954;8.842;2024-02-23T00:50:47;1.37;;;1.10;;
85894;SDS011;76441;49.954;8.842;2024-02-23T00:53:12;8.23;;;1.43;;
85894;SDS011;76441;49.954;8.842;2024-02-23T00:55:37;2.83;;;1.43;;
85894;SDS011;76441;49.954;8.842;2024-02-23T00:58:03;1.73;;;1.10;;
85894;SDS011;76441;49.954;8.842;2024-02-23T01:00:28;6.60;;;1.58;;
85894;SDS011;76441;49.954;8.842;2024-02-23T01:02:54;4.35;;;1.30;;
85894;SDS011;76441;49.954;8.842;2024-02-23T01:05:19;3.60;;;1.42;;
85894;SDS011;76441;49.954;8.842;2024-02-23T01:07:44;2.60;;;1.53;;
85894;SDS011;76441;49.954;8.842;2024-02-23T01:10:10;2.90;;;1.52;;
85894;SDS011;76441;49.954;8.842;2024-02-23T01:12:35;4.07;;;1.60;;
85894;SDS011;76441;49.954;8.842;2024-02-23T01:15:00;6.57;;;1.50;;
85894;SDS011;76441;49.954;8.842;2024-02-23T01:17:26;1.50;;;1.13;;
85894;SDS011;76441;49.954;8.842;2024-02-23T01:19:51;2.33;;;1.17;;
85894;SDS011;76441;49.954;8.842;2024-02-23T01:22:17;3.63;;;1.40;;
85894;SDS011;76441;49.954;8.842;2024-02-23T01:24:42;3.30;;;1.45;;
85894;SDS011;76441;49.954;8.842;2024-02-23T01:27:08;2.17;;;1.30;;
85894;SDS011;76441;49.954;8.842;2024-02-23T01:29:33;3.10;;;1.40;;
85894;SDS011;76441;49.954;8.842;2024-02-23T01:31:59;2.10;;;1.42;;
85894;SDS011;76441;49.954;8.842;2024-02-23T01:34:24;2.72;;;1.35;;
85894;SDS011;76441;49.954;8.842;2024-02-23T01:36:50;4.60;;;2.00;;
85894;SDS011;76441;49.954;8.842;2024-02-23T01:39:15;2.27;;;1.60;;
85894;SDS011;76441;49.954;8.842;2024-02-23T01:41:40;3.40;;;1.30;;
85894;SDS011;76441;49.954;8.842;2024-02-23T01:44:06;3.55;;;1.33;;
85894;SDS011;76441;49.954;8.842;2024-02-23T01:46:31;2.53;;;1.40;;
85894;SDS011;76441;49.954;8.842;2024-02-23T01:48:57;2.92;;;1.90;;
85894;SDS011;76441;49.954;8.842;2024-02-23T01:51:23;3.58;;;1.50;;
85894;SDS011;76441;49.954;8.842;2024-02-23T01:53:49;4.10;;;1.92;;
85894;SDS011;76441;49.954;8.842;2024-02-23T01:56:15;2.05;;;1.20;;
85894;SDS011;76441;49.954;8.842;2024-02-23T01:58:42;2.33;;;1.70;;
85894;SDS011;76441;49.954;8.842;2024-02-23T02:01:08;1.40;;;1.10;;
85894;SDS011;76441;49.954;8.842;2024-02-23T02:03:34;2.15;;;1.33;;
85894;SDS011;76441;49.954;8.842;2024-02-23T02:06:00;1.98;;;1.33;;
85894;SDS011;76441;49.954;8.842;2024-02-23T02:08:26;2.80;;;1.23;;
85894;SDS011;76441;49.954;8.842;2024-02-23T02:10:51;1.50;;;1.23;;
85894;SDS011;76441;49.954;8.842;2024-02-23T02:13:17;1.47;;;1.00;;
85894;SDS011;76441;49.954;8.842;2024-02-23T02:15:42;2.45;;;1.23;;
85894;SDS011;76441;49.954;8.842;2024-02-23T02:18:09;2.13;;;1.10;;
85894;SDS011;76441;49.954;8.842;2024-02-23T02:20:34;2.95;;;1.40;;
85894;SDS011;76441;49.954;8.842;2024-02-23T02:23:01;3.50;;;1.25;;
85894;SDS011;76441;49.954;8.842;2024-02-23T02:25:26;1.65;;;1.00;;
85894;SDS011;76441;49.954;8.842;2024-02-23T02:27:52;2.80;;;1.37;;
85894;SDS011;76441;49.954;8.842;2024-02-23T02:30:17;2.37;;;1.20;;
85894;SDS011;76441;49.954;8.842;2024-02-23T02:32:42;1.70;;;1.10;;
85894;SDS011;76441;49.954;8.842;2024-02-23T02:35:09;3.30;;;1.25;;
85894;SDS011;76441;49.954;8.842;2024-02-23T02:37:35;6.32;;;1.60;;
85894;SDS011;76441;49.954;8.842;2024-02-23T02:40:01;3.35;;;1.55;;
85894;SDS011;76441;49.954;8.842;2024-02-23T02:42:27;2.45;;;1.20;;
85894;SDS011;76441;49.954;8.842;2024-02-23T02:44:53;3.22;;;1.25;;
85894;SDS011;76441;49.954;8.842;2024-02-23T02:47:19;2.10;;;1.50;;
85894;SDS011;76441;49.954;8.842;2024-02-23T02:49:44;2.20;;;1.20;;
85894;SDS011;76441;49.954;8.842;2024-02-23T02:52:09;2.03;;;0.90;;
85894;SDS011;76441;49.954;8.842;2024-02-23T02:54:34;3.30;;;1.00;;
85894;SDS011;76441;49.954;8.842;2024-02-23T02:57:00;1.10;;;0.90;;
85894;SDS011;76441;49.954;8.842;2024-02-23T02:59:25;1.77;;;1.30;;
85894;SDS011;76441;49.954;8.842;2024-02-23T03:01:50;5.03;;;1.40;;
85894;SDS011;76441;49.954;8.842;2024-02-23T03:04:15;3.43;;;1.17;;
85894;SDS011;76441;49.954;8.842;2024-02-23T03:06:41;1.83;;;1.15;;
85894;SDS011;76441;49.954;8.842;2024-02-23T03:09:06;6.22;;;1.30;;
85894;SDS011;76441;49.954;8.842;2024-02-23T03:11:32;1.92;;;1.10;;
85894;SDS011;76441;49.954;8.842;2024-02-23T03:13:57;6.25;;;1.05;;
85894;SDS011;76441;49.954;8.842;2024-02-23T03:16:22;1.70;;;0.80;;
85894;SDS011;76441;49.954;8.842;2024-02-23T03:18:48;2.00;;;1.15;;
85894;SDS011;76441;49.954;8.842;2024-02-23T03:21:15;3.03;;;1.58;;
85894;SDS011;76441;49.954;8.842;2024-02-23T03:23:40;1.75;;;1.13;;
85894;SDS011;76441;49.954;8.842;2024-02-23T03:26:09;3.75;;;1.30;;
85894;SDS011;76441;49.954;8.842;2024-02-23T03:28:34;3.88;;;1.13;;
85894;SDS011;76441;49.954;8.842;2024-02-23T03:31:00;1.50;;;1.27;;
85894;SDS011;76441;49.954;8.842;2024-02-23T03:33:25;2.97;;;1.00;;
85894;SDS011;76441;49.954;8.842;2024-02-23T03:35:51;6.38;;;1.45;;
85894;SDS011;76441;49.954;8.842;2024-02-23T03:38:16;2.87;;;1.27;;
85894;SDS011;76441;49.954;8.842;2024-02-23T03:40:41;3.40;;;1.58;;
85894;SDS011;76441;49.954;8.842;2024-02-23T03:43:07;3.30;;;1.30;;
85894;SDS011;76441;49.954;8.842;2024-02-23T03:45:32;4.85;;;1.92;;
85894;SDS011;76441;49.954;8.842;2024-02-23T03:47:59;3.60;;;1.48;;
85894;SDS011;76441;49.954;8.842;2024-02-23T03:50:25;3.55;;;1.33;;
85894;SDS011;76441;49.954;8.842;2024-02-23T03:52:50;3.67;;;1.30;;
85894;SDS011;76441;49.954;8.842;2024-02-23T03:55:15;5.53;;;1.67;;
85894;SDS011;76441;49.954;8.842;2024-02-23T03:57:41;2.35;;;1.55;;
85894;SDS011;76441;49.954;8.842;2024-02-23T04:00:06;2.97;;;1.58;;
85894;SDS011;76441;49.954;8.842;2024-02-23T04:02:32;3.58;;;1.55;;
85894;SDS011;76441;49.954;8.842;2024-02-23T04:04:58;5.07;;;1.85;;
85894;SDS011;76441;49.954;8.842;2024-02-23T04:07:23;3.83;;;1.40;;
85894;SDS011;76441;49.954;8.842;2024-02-23T04:09:48;6.68;;;2.83;;
85894;SDS011;76441;49.954;8.842;2024-02-23T04:12:21;3.70;;;1.95;;
85894;SDS011;76441;49.954;8.842;2024-02-23T04:14:47;5.22;;;1.92;;
85894;SDS011;76441;49.954;8.842;2024-02-23T04:17:12;4.95;;;1.80;;
85894;SDS011;76441;49.954;8.842;2024-02-23T04:19:38;3.08;;;1.58;;
85894;SDS011;76441;49.954;8.842;2024-02-23T04:22:05;3.88;;;1.73;;
85894;SDS011;76441;49.954;8.842;2024-02-23T04:24:31;5.13;;;1.75;;
85894;SDS011;76441;49.954;8.842;2024-02-23T04:26:56;3.85;;;1.77;;
85894;SDS011;76441;49.954;8.842;2024-02-23T04:29:22;3.40;;;1.70;;
85894;SDS011;76441;49.954;8.842;2024-02-23T04:31:47;3.77;;;1.50;;
85894;SDS011;76441;49.954;8.842;2024-02-23T04:34:12;4.87;;;1.70;;
85894;SDS011;76441;49.954;8.842;2024-02-23T04:36:40;2.70;;;1.80;;
85894;SDS011;76441;49.954;8.842;2024-02-23T04:39:05;3.27;;;1.50;;
85894;SDS011;76441;49.954;8.842;2024-02-23T04:41:30;3.47;;;1.20;;
85894;SDS011;76441;49.954;8.842;2024-02-23T04:43:55;2.53;;;1.50;;
85894;SDS011;76441;49.954;8.842;2024-02-23T04:46:26;2.63;;;1.40;;
85894;SDS011;76441;49.954;8.842;2024-02-23T04:48:51;3.35;;;1.40;;
85894;SDS011;76441;49.954;8.842;2024-02-23T04:51:17;2.60;;;1.13;;
85894;SDS011;76441;49.954;8.842;2024-02-23T04:53:42;2.58;;;1.42;;
85894;SDS011;76441;49.954;8.842;2024-02-23T04:56:08;3.03;;;1.27;;
85894;SDS011;76441;49.954;8.842;2024-02-23T04:58:33;4.45;;;1.23;;
85894;SDS011;76441;49.954;8.842;2024-02-23T05:00:58;2.93;;;1.53;;
85894;SDS011;76441;49.954;8.842;2024-02-23T05:03:24;5.57;;;2.60;;
85894;SDS011;76441;49.954;8.842;2024-02-23T05:05:49;1.77;;;1.23;;
85894;SDS011;76441;49.954;8.842;2024-02-23T05:08:19;3.58;;;1.33;;
85894;SDS011;76441;49.954;8.842;2024-02-23T05:10:45;4.65;;;1.33;;
85894;SDS011;76441;49.954;8.842;2024-02-23T05:13:11;2.83;;;1.65;;
85894;SDS011;76441;49.954;8.842;2024-02-23T05:15:36;2.53;;;1.23;;
85894;SDS011;76441;49.954;8.842;2024-02-23T05:18:02;1.70;;;1.40;;
85894;SDS011;76441;49.954;8.842;2024-02-23T05:20:27;2.72;;;1.33;;
85894;SDS011;76441;49.954;8.842;2024-02-23T05:22:52;3.43;;;1.50;;
85894;SDS011;76441;49.954;8.842;2024-02-23T05:25:18;2.20;;;1.50;;
85894;SDS011;76441;49.954;8.842;2024-02-23T05:27:43;2.93;;;1.30;;
85894;SDS011;76441;49.954;8.842;2024-02-23T05:30:09;3.15;;;1.40;;
85894;SDS011;76441;49.954;8.842;2024-02-23T05:32:35;2.92;;;1.65;;
85894;SDS011;76441;49.954;8.842;2024-02-23T05:35:00;2.50;;;1.77;;
85894;SDS011;76441;49.954;8.842;2024-02-23T05:37:26;2.78;;;1.65;;
85894;SDS011;76441;49.954;8.842;2024-02-23T05:39:52;3.67;;;1.77;;
85894;SDS011;76441;49.954;8.842;2024-02-23T05:42:18;2.95;;;1.52;;
85894;SDS011;76441;49.954;8.842;2024-02-23T05:44:44;3.90;;;1.33;;
85894;SDS011;76441;49.954;8.842;2024-02-23T05:47:09;2.10;;;1.70;;
85894;SDS011;76441;49.954;8.842;2024-02-23T05:49:35;4.40;;;1.58;;
85894;SDS011;76441;49.954;8.842;2024-02-23T05:52:01;2.10;;;1.52;;
85894;SDS011;76441;49.954;8.842;2024-02-23T05:54:26;2.95;;;1.45;;
85894;SDS011;76441;49.954;8.842;2024-02-23T05:56:51;4.18;;;1.48;;
85894;SDS011;76441;49.954;8.842;2024-02-23T05:59:17;3.13;;;1.30;;
85894;SDS011;76441;49.954;8.842;2024-02-23T06:01:42;5.00;;;1.40;;
85894;SDS011;76441;49.954;8.842;2024-02-23T06:04:07;3.55;;;1.85;;
85894;SDS011;76441;49.954;8.842;2024-02-23T06:06:32;4.33;;;1.60;;
85894;SDS011;76441;49.954;8.842;2024-02-23T06:08:58;2.57;;;1.27;;
85894;SDS011;76441;49.954;8.842;2024-02-23T06:11:23;1.97;;;1.20;;
85894;SDS011;76441;49.954;8.842;2024-02-23T06:13:48;6.20;;;1.67;;
85894;SDS011;76441;49.954;8.842;2024-02-23T06:16:13;2.23;;;1.37;;
85894;SDS011;76441;49.954;8.842;2024-02-23T06:18:39;4.15;;;1.40;;
85894;SDS011;76441;49.954;8.842;2024-02-23T06:21:11;5.63;;;1.52;;
85894;SDS011;76441;49.954;8.842;2024-02-23T06:23:37;3.88;;;2.17;;
85894;SDS011;76441;49.954;8.842;2024-02-23T06:26:04;2.72;;;1.40;;
85894;SDS011;76441;49.954;8.842;2024-02-23T06:28:29;4.45;;;1.63;;
85894;SDS011;76441;49.954;8.842;2024-02-23T06:30:55;2.67;;;1.17;;
85894;SDS011;76441;49.954;8.842;2024-02-23T06:33:20;2.33;;;1.63;;
85894;SDS011;76441;49.954;8.842;2024-02-23T06:35:45;4.43;;;1.58;;
85894;SDS011;76441;49.954;8.842;2024-02-23T06:38:10;6.03;;;1.58;;
85894;SDS011;76441;49.954;8.842;2024-02-23T06:40:36;6.63;;;1.73;;
85894;SDS011;76441;49.954;8.842;2024-02-23T06:43:01;2.97;;;1.30;;
85894;SDS011;76441;49.954;8.842;2024-02-23T06:45:26;2.78;;;1.73;;
85894;SDS011;76441;49.954;8.842;2024-02-23T06:47:52;4.70;;;1.40;;
85894;SDS011;76441;49.954;8.842;2024-02-23T06:50:17;3.47;;;1.77;;
85894;SDS011;76441;49.954;8.842;2024-02-23T06:52:42;3.38;;;1.40;;
85894;SDS011;76441;49.954;8.842;2024-02-23T06:55:08;5.67;;;1.50;;
85894;SDS011;76441;49.954;8.842;2024-02-23T06:57:34;5.80;;;1.50;;
85894;SDS011;76441;49.954;8.842;2024-02-23T07:00:00;7.85;;;1.83;;
85894;SDS011;76441;49.954;8.842;2024-02-23T07:02:25;3.92;;;2.08;;
85894;SDS011;76441;49.954;8.842;2024-02-23T07:04:50;9.23;;;1.80;;
85894;SDS011;76441;49.954;8.842;2024-02-23T07:07:16;2.00;;;1.43;;
85894;SDS011;76441;49.954;8.842;2024-02-23T07:09:41;3.93;;;1.60;;
85894;SDS011;76441;49.954;8.842;2024-02-23T07:12:06;3.08;;;1.67;;
85894;SDS011;76441;49.954;8.842;2024-02-23T07:14:32;5.18;;;1.50;;
85894;SDS011;76441;49.954;8.842;2024-02-23T07:16:57;3.73;;;1.50;;
85894;SDS011;76441;49.954;8.842;2024-02-23T07:19:22;3.97;;;2.10;;
85894;SDS011;76441;49.954;8.842;2024-02-23T07:21:47;4.60;;;1.10;;
85894;SDS011;76441;49.954;8.842;2024-02-23T07:24:13;8.27;;;2.00;;
85894;SDS011;76441;49.954;8.842;2024-02-23T07:26:38;3.25;;;1.50;;
85894;SDS011;76441;49.954;8.842;2024-02-23T07:29:03;4.47;;;1.60;;
85894;SDS011;76441;49.954;8.842;2024-02-23T07:31:29;6.28;;;2.00;;
85894;SDS011;76441;49.954;8.842;2024-02-23T07:33:54;12.82;;;5.28;;
85894;SDS011;76441;49.954;8.842;2024-02-23T07:36:20;5.03;;;1.85;;
85894;SDS011;76441;49.954;8.842;2024-02-23T07:38:45;10.90;;;5.25;;
85894;SDS011;76441;49.954;8.842;2024-02-23T07:41:12;4.20;;;1.88;;
85894;SDS011;76441;49.954;8.842;2024-02-23T07:43:42;6.47;;;3.83;;
85894;SDS011;76441;49.954;8.842;2024-02-23T07:46:08;6.55;;;2.83;;
85894;SDS011;76441;49.954;8.842;2024-02-23T07:48:34;12.07;;;6.35;;
85894;SDS011;76441;49.954;8.842;2024-02-23T07:51:00;11.27;;;6.07;;
85894;SDS011;76441;49.954;8.842;2024-02-23T07:53:26;17.35;;;8.68;;
85894;SDS011;76441;49.954;8.842;2024-02-23T07:55:51;21.13;;;9.30;;
85894;SDS011;76441;49.954;8.842;2024-02-23T07:58:16;10.73;;;4.27;;
85894;SDS011;76441;49.954;8.842;2024-02-23T08:00:41;8.97;;;3.03;;
85894;SDS011;76441;49.954;8.842;2024-02-23T08:03:07;5.77;;;2.33;;
85894;SDS011;76441;49.954;8.842;2024-02-23T08:05:33;6.85;;;2.22;;
85894;SDS011;76441;49.954;8.842;2024-02-23T08:07:58;4.67;;;2.10;;
85894;SDS011;76441;49.954;8.842;2024-02-23T08:10:23;6.97;;;2.00;;
85894;SDS011;76441;49.954;8.842;2024-02-23T08:12:50;9.20;;;2.50;;
85894;SDS011;76441;49.954;8.842;2024-02-23T08:15:16;5.60;;;2.17;;
85894;SDS011;76441;49.954;8.842;2024-02-23T08:17:41;8.60;;;2.77;;
85894;SDS011;76441;49.954;8.842;2024-02-23T08:20:06;2.90;;;1.40;;
85894;SDS011;76441;49.954;8.842;2024-02-23T08:22:33;4.57;;;1.90;;
85894;SDS011;76441;49.954;8.842;2024-02-23T08:24:58;6.00;;;2.17;;
85894;SDS011;76441;49.954;8.842;2024-02-23T08:27:23;11.53;;;1.60;;
85894;SDS011;76441;49.954;8.842;2024-02-23T08:29:48;7.73;;;1.67;;
85894;SDS011;76441;49.954;8.842;2024-02-23T08:32:14;4.80;;;1.30;;
85894;SDS011;76441;49.954;8.842;2024-02-23T08:34:39;4.33;;;1.70;;
85894;SDS011;76441;49.954;8.842;2024-02-23T08:37:04;4.10;;;1.53;;
85894;SDS011;76441;49.954;8.842;2024-02-23T08:39:29;6.88;;;1.52;;
85894;SDS011;76441;49.954;8.842;2024-02-23T08:41:55;5.88;;;1.77;;
85894;SDS011;76441;49.954;8.842;2024-02-23T08:44:20;4.15;;;1.85;;
85894;SDS011;76441;49.954;8.842;2024-02-23T08:46:45;3.45;;;1.80;;
85894;SDS011;76441;49.954;8.842;2024-02-23T08:49:11;8.82;;;2.50;;
85894;SDS011;76441;49.954;8.842;2024-02-23T08:51:37;5.75;;;1.50;;
85894;SDS011;76441;49.954;8.842;2024-02-23T08:54:02;6.27;;;2.00;;
85894;SDS011;76441;49.954;8.842;2024-02-23T08:56:30;6.57;;;1.67;;
85894;SDS011;76441;49.954;8.842;2024-02-23T08:58:56;6.28;;;1.60;;
85894;SDS011;76441;49.954;8.842;2024-02-23T09:01:22;8.63;;;2.65;;
85894;SDS011;76441;49.954;8.842;2024-02-23T09:03:47;6.50;;;1.57;;
85894;SDS011;76441;49.954;8.842;2024-02-23T09:06:12;3.55;;;1.40;;
85894;SDS011;76441;49.954;8.842;2024-02-23T09:08:38;12.05;;;1.95;;
85894;SDS011;76441;49.954;8.842;2024-02-23T09:11:03;4.97;;;1.55;;
85894;SDS011;76441;49.954;8.842;2024-02-23T09:13:29;5.68;;;1.80;;
85894;SDS011;76441;49.954;8.842;2024-02-23T09:15:55;6.88;;;2.10;;
85894;SDS011;76441;49.954;8.842;2024-02-23T09:18:20;6.65;;;2.35;;
85894;SDS011;76441;49.954;8.842;2024-02-23T09:20:45;4.17;;;1.50;;
85894;SDS011;76441;49.954;8.842;2024-02-23T09:23:11;3.53;;;1.50;;
85894;SDS011;76441;49.954;8.842;2024-02-23T09:25:37;3.58;;;1.23;;
85894;SDS011;76441;49.954;8.842;2024-02-23T09:28:02;2.95;;;1.48;;
85894;SDS011;76441;49.954;8.842;2024-02-23T09:30:28;4.88;;;1.30;;
85894;SDS011;76441;49.954;8.842;2024-02-23T09:32:53;5.03;;;1.70;;
85894;SDS011;76441;49.954;8.842;2024-02-23T09:35:19;5.72;;;1.65;;
85894;SDS011;76441;49.954;8.842;2024-02-23T09:37:45;6.22;;;1.92;;
85894;SDS011;76441;49.954;8.842;2024-02-23T09:40:10;4.43;;;1.85;;
85894;SDS011;76441;49.954;8.842;2024-02-23T09:42:36;5.28;;;1.70;;
85894;SDS011;76441;49.954;8.842;2024-02-23T09:45:03;6.32;;;2.10;;
85894;SDS011;76441;49.954;8.842;2024-02-23T09:47:30;5.18;;;2.13;;
85894;SDS011;76441;49.954;8.842;2024-02-23T09:49:56;5.75;;;1.77;;
85894;SDS011;76441;49.954;8.842;2024-02-23T09:52:21;6.30;;;1.65;;
85894;SDS011;76441;49.954;8.842;2024-02-23T09:54:47;5.90;;;1.83;;
85894;SDS011;76441;49.954;8.842;2024-02-23T09:57:13;7.70;;;2.03;;
85894;SDS011;76441;49.954;8.842;2024-02-23T09:59:40;6.03;;;1.83;;
85894;SDS011;76441;49.954;8.842;2024-02-23T10:02:08;8.10;;;2.37;;
85894;SDS011;76441;49.954;8.842;2024-02-23T10:04:35;5.38;;;1.70;;
85894;SDS011;76441;49.954;8.842;2024-02-23T10:07:01;6.30;;;1.35;;
85894;SDS011;76441;49.954;8.842;2024-02-23T10:09:26;4.15;;;1.60;;
85894;SDS011;76441;49.954;8.842;2024-02-23T10:11:54;3.85;;;1.65;;
85894;SDS011;76441;49.954;8.842;2024-02-23T10:14:20;9.32;;;1.92;;
85894;SDS011;76441;49.954;8.842;2024-02-23T10:16:46;4.47;;;1.48;;
85894;SDS011;76441;49.954;8.842;2024-02-23T10:19:11;4.47;;;1.70;;
85894;SDS011;76441;49.954;8.842;2024-02-23T10:21:36;5.63;;;2.23;;
85894;SDS011;76441;49.954;8.842;2024-02-23T10:24:01;8.50;;;1.73;;
85894;SDS011;76441;49.954;8.842;2024-02-23T10:26:27;4.55;;;1.98;;
85894;SDS011;76441;49.954;8.842;2024-02-23T10:28:52;6.55;;;1.63;;
85894;SDS011;76441;49.954;8.842;2024-02-23T10:31:18;7.82;;;1.52;;
85894;SDS011;76441;49.954;8.842;2024-02-23T10:33:46;7.40;;;1.50;;
85894;SDS011;76441;49.954;8.842;2024-02-23T10:36:12;2.88;;;1.38;;
85894;SDS011;76441;49.954;8.842;2024-02-23T10:38:40;3.67;;;1.92;;
85894;SDS011;76441;49.954;8.842;2024-02-23T10:41:10;9.70;;;2.10;;
85894;SDS011;76441;49.954;8.842;2024-02-23T10:43:41;3.67;;;1.70;;
85894;SDS011;76441;49.954;8.842;2024-02-23T10:46:11;5.22;;;1.52;;
85894;SDS011;76441;49.954;8.842;2024-02-23T10:48:43;6.22;;;1.67;;
85894;SDS011;76441;49.954;8.842;2024-02-23T10:51:10;2.38;;;1.25;;
85894;SDS011;76441;49.954;8.842;2024-02-23T10:53:37;6.82;;;1.52;;
85894;SDS011;76441;49.954;8.842;2024-02-23T10:56:04;8.57;;;1.67;;
85894;SDS011;76441;49.954;8.842;2024-02-23T10:58:31;5.78;;;1.50;;
85894;SDS011;76441;49.954;8.842;2024-02-23T11:01:03;6.20;;;1.30;;
85894;SDS011;76441;49.954;8.842;2024-02-23T11:03:32;4.50;;;1.70;;
85894;SDS011;76441;49.954;8.842;2024-02-23T11:06:00;5.63;;;2.03;;
85894;SDS011;76441;49.954;8.842;2024-02-23T11:08:28;3.95;;;1.48;;
85894;SDS011;76441;49.954;8.842;2024-02-23T11:10:54;5.82;;;1.60;;
85894;SDS011;76441;49.954;8.842;2024-02-23T11:13:36;6.70;;;2.28;;
85894;SDS011;76441;49.954;8.842;2024-02-23T11:16:05;4.78;;;1.55;;
85894;SDS011;76441;49.954;8.842;2024-02-23T11:18:32;2.78;;;1.40;;
85894;SDS011;76441;49.954;8.842;2024-02-23T11:21:00;4.13;;;1.27;;
85894;SDS011;76441;49.954;8.842;2024-02-23T11:28:27;5.72;;;1.70;;
85894;SDS011;76441;49.954;8.842;2024-02-23T11:30:53;4.63;;;1.42;;
85894;SDS011;76441;49.954;8.842;2024-02-23T11:33:28;3.55;;;1.60;;
85894;SDS011;76441;49.954;8.842;2024-02-23T11:36:04;3.33;;;1.40;;
85894;SDS011;76441;49.954;8.842;2024-02-23T11:38:30;4.10;;;1.55;;
85894;SDS011;76441;49.954;8.842;2024-02-23T11:40:57;8.25;;;1.77;;
85894;SDS011;76441;49.954;8.842;2024-02-23T11:43:22;5.32;;;1.95;;
85894;SDS011;76441;49.954;8.842;2024-02-23T11:45:48;4.03;;;1.50;;
85894;SDS011;76441;49.954;8.842;2024-02-23T11:48:13;3.78;;;3.05;;
85894;SDS011;76441;49.954;8.842;2024-02-23T11:50:38;2.13;;;1.30;;
85894;SDS011;76441;49.954;8.842;2024-02-23T11:53:04;3.33;;;1.30;;
85894;SDS011;76441;49.954;8.842;2024-02-23T11:55:29;7.22;;;1.55;;
85894;SDS011;76441;49.954;8.842;2024-02-23T11:57:55;3.80;;;1.40;;
85894;SDS011;76441;49.954;8.842;2024-02-23T12:00:20;5.78;;;1.80;;
85894;SDS011;76441;49.954;8.842;2024-02-23T12:02:46;6.68;;;1.42;;
85894;SDS011;76441;49.954;8.842;2024-02-23T12:05:15;6.05;;;1.50;;
85894;SDS011;76441;49.954;8.842;2024-02-23T12:07:41;3.72;;;1.27;;
85894;SDS011;76441;49.954;8.842;2024-02-23T12:10:07;3.97;;;1.92;;
85894;SDS011;76441;49.954;8.842;2024-02-23T12:12:33;4.53;;;1.40;;
85894;SDS011;76441;49.954;8.842;2024-02-23T12:14:59;4.88;;;1.52;;
85894;SDS011;76441;49.954;8.842;2024-02-23T12:17:24;4.25;;;1.70;;
85894;SDS011;76441;49.954;8.842;2024-02-23T12:19:57;3.85;;;1.63;;
85894;SDS011;76441;49.954;8.842;2024-02-23T12:22:26;4.78;;;1.98;;
85894;SDS011;76441;49.954;8.842;2024-02-23T12:24:52;6.60;;;1.70;;
85894;SDS011;76441;49.954;8.842;2024-02-23T12:27:17;8.43;;;1.92;;
85894;SDS011;76441;49.954;8.842;2024-02-23T12:29:50;3.72;;;1.38;;
85894;SDS011;76441;49.954;8.842;2024-02-23T12:32:22;4.93;;;1.40;;
85894;SDS011;76441;49.954;8.842;2024-02-23T12:34:47;4.18;;;1.58;;
85894;SDS011;76441;49.954;8.842;2024-02-23T12:37:16;3.63;;;1.50;;
85894;SDS011;76441;49.954;8.842;2024-02-23T12:39:43;6.18;;;2.35;;
85894;SDS011;76441;49.954;8.842;2024-02-23T12:42:08;4.28;;;1.70;;
85894;SDS011;76441;49.954;8.842;2024-02-23T12:44:36;6.33;;;1.90;;
85894;SDS011;76441;49.954;8.842;2024-02-23T12:47:02;4.88;;;1.98;;
85894;SDS011;76441;49.954;8.842;2024-02-23T12:49:27;2.85;;;1.20;;
85894;SDS011;76441;49.954;8.842;2024-02-23T12:51:53;4.43;;;1.60;;
85894;SDS011;76441;49.954;8.842;2024-02-23T12:54:18;2.92;;;1.20;;
85894;SDS011;76441;49.954;8.842;2024-02-23T12:56:43;3.45;;;1.42;;
85894;SDS011;76441;49.954;8.842;2024-02-23T12:59:09;4.75;;;1.73;;
85894;SDS011;76441;49.954;8.842;2024-02-23T13:01:35;4.07;;;2.08;;
85894;SDS011;76441;49.954;8.842;2024-02-23T13:04:02;5.00;;;1.58;;
85894;SDS011;76441;49.954;8.842;2024-02-23T13:06:28;3.03;;;1.25;;
85894;SDS011;76441;49.954;8.842;2024-02-23T13:08:53;3.53;;;1.47;;
85894;SDS011;76441;49.954;8.842;2024-02-23T13:11:18;5.17;;;1.13;;
85894;SDS011;76441;49.954;8.842;2024-02-23T13:13:44;3.90;;;1.40;;
85894;SDS011;76441;49.954;8.842;2024-02-23T13:16:09;5.20;;;1.40;;
85894;SDS011;76441;49.954;8.842;2024-02-23T13:18:35;3.95;;;1.85;;
85894;SDS011;76441;49.954;8.842;2024-02-23T13:21:00;7.32;;;1.70;;
85894;SDS011;76441;49.954;8.842;2024-02-23T13:23:26;3.35;;;1.30;;
85894;SDS011;76441;49.954;8.842;2024-02-23T13:25:51;2.97;;;1.33;;
85894;SDS011;76441;49.954;8.842;2024-02-23T13:28:16;3.30;;;1.70;;
85894;SDS011;76441;49.954;8.842;2024-02-23T13:30:42;5.05;;;1.58;;
85894;SDS011;76441;49.954;8.842;2024-02-23T13:33:07;4.83;;;1.70;;
85894;SDS011;76441;49.954;8.842;2024-02-23T13:35:33;5.15;;;1.70;;
85894;SDS011;76441;49.954;8.842;2024-02-23T13:37:59;3.65;;;1.88;;
85894;SDS011;76441;49.954;8.842;2024-02-23T13:40:24;4.32;;;1.90;;
85894;SDS011;76441;49.954;8.842;2024-02-23T13:42:49;7.47;;;1.88;;
85894;SDS011;76441;49.954;8.842;2024-02-23T13:45:15;5.43;;;1.50;;
85894;SDS011;76441;49.954;8.842;2024-02-23T13:47:41;3.45;;;1.83;;
85894;SDS011;76441;49.954;8.842;2024-02-23T13:50:09;4.57;;;1.85;;
85894;SDS011;76441;49.954;8.842;2024-02-23T13:52:35;2.80;;;1.23;;
85894;SDS011;76441;49.954;8.842;2024-02-23T13:55:00;2.85;;;1.20;;
85894;SDS011;76441;49.954;8.842;2024-02-23T13:57:25;3.35;;;1.40;;
85894;SDS011;76441;49.954;8.842;2024-02-23T13:59:51;2.47;;;1.00;;
85894;SDS011;76441;49.954;8.842;2024-02-23T14:02:16;3.00;;;1.38;;
85894;SDS011;76441;49.954;8.842;2024-02-23T14:04:43;3.00;;;1.20;;
85894;SDS011;76441;49.954;8.842;2024-02-23T14:07:10;2.92;;;1.17;;
85894;SDS011;76441;49.954;8.842;2024-02-23T14:09:35;2.90;;;1.47;;
85894;SDS011;76441;49.954;8.842;2024-02-23T14:12:00;4.53;;;1.63;;
85894;SDS011;76441;49.954;8.842;2024-02-23T14:14:25;3.53;;;1.57;;
85894;SDS011;76441;49.954;8.842;2024-02-23T14:16:51;5.03;;;1.80;;
85894;SDS011;76441;49.954;8.842;2024-02-23T14:19:16;5.47;;;1.70;;
85894;SDS011;76441;49.954;8.842;2024-02-23T14:21:41;5.20;;;1.80;;
85894;SDS011;76441;49.954;8.842;2024-02-23T14:24:07;6.40;;;1.55;;
85894;SDS011;76441;49.954;8.842;2024-02-23T14:26:32;3.83;;;1.40;;
85894;SDS011;76441;49.954;8.842;2024-02-23T14:28:58;6.35;;;1.60;;
85894;SDS011;76441;49.954;8.842;2024-02-23T14:31:23;4.72;;;2.38;;
85894;SDS011;76441;49.954;8.842;2024-02-23T14:33:49;3.90;;;1.70;;
85894;SDS011;76441;49.954;8.842;2024-02-23T14:36:16;4.40;;;1.50;;
85894;SDS011;76441;49.954;8.842;2024-02-23T14:38:41;4.75;;;1.50;;
85894;SDS011;76441;49.954;8.842;2024-02-23T14:41:07;6.70;;;2.60;;
85894;SDS011;76441;49.954;8.842;2024-02-23T14:43:34;10.27;;;3.63;;
85894;SDS011;76441;49.954;8.842;2024-02-23T14:45:59;3.75;;;1.50;;